Time;durP1;ratioP1;P1;durP2;ratioP2;P2;SDS_P1;SDS_P2;PMS_P1;PMS_P2;Temp;Humidity;BMP_temperature;BMP_pressure;BME280_temperature;BME280_humidity;BME280_pressure;Samples;Min_cycle;Max_cycle;Signal;HPM_P1;HPM_P2
2023/10/08 03:03:43;;;;;;;10.07;2.92;;;17.30;74.30;;;;;;4967556;28;20062;-96
2023/10/08 03:06:11;;;;;;;13.02;3.13;;;17.30;74.40;;;;;;4986406;28;20026;-95
2023/10/08 03:08:41;;;;;;;15.88;3.50;;;17.30;74.20;;;;;;4955079;28;20034;-92
2023/10/08 03:11:16;;;;;;;7.88;3.35;;;17.30;74.20;;;;;;4963366;28;20037;-95
2023/10/08 03:13:46;;;;;;;7.90;3.08;;;17.30;74.30;;;;;;4992906;28;20104;-95
2023/10/08 03:16:15;;;;;;;;;;;17.30;74.20;;;;;;4971794;28;20117;-95
2023/10/08 03:18:49;;;;;;;10.95;2.95;;;17.30;74.20;;;;;;4977196;28;19910;-95
2023/10/08 03:22:04;;;;;;;9.32;3.35;;;17.30;74.20;;;;;;4967177;28;20047;-93
2023/10/08 03:24:06;;;;;;;6.85;3.00;;;17.30;74.30;;;;;;4984628;28;20034;-95
2023/10/08 03:29:15;;;;;;;6.57;2.95;;;17.30;74.40;;;;;;4994347;28;20026;-96
2023/10/08 03:34:18;;;;;;;12.40;3.25;;;17.30;74.30;;;;;;4995166;28;20034;-94
2023/10/08 03:36:46;;;;;;;5.95;2.85;;;17.30;74.20;;;;;;4978183;28;20061;-94
2023/10/08 03:39:15;;;;;;;7.90;3.13;;;17.30;74.40;;;;;;4993461;28;20027;-95
2023/10/08 03:41:41;;;;;;;7.10;2.88;;;17.30;74.30;;;;;;4970541;28;20068;-95
2023/10/08 03:44:14;;;;;;;23.08;3.40;;;17.30;74.50;;;;;;4961820;28;20055;-96
2023/10/08 03:46:42;;;;;;;11.63;2.97;;;17.30;74.40;;;;;;4971442;28;20030;-96
2023/10/08 03:51:52;;;;;;;9.27;3.08;;;17.30;74.40;;;;;;4993639;28;20032;-94
2023/10/08 03:54:34;;;;;;;6.00;2.50;;;17.30;74.30;;;;;;4967491;28;20042;-95
2023/10/08 03:57:00;;;;;;;11.38;3.55;;;17.30;74.30;;;;;;4993186;28;20133;-95
2023/10/08 03:59:30;;;;;;;8.07;3.40;;;17.30;74.40;;;;;;4969920;28;20038;-95
2023/10/08 04:02:00;;;;;;;7.25;3.17;;;17.30;74.40;;;;;;4992531;28;20038;-96
2023/10/08 04:04:48;;;;;;;12.98;3.33;;;17.30;74.40;;;;;;4993251;28;20027;-96
2023/10/08 04:10:20;;;;;;;10.23;2.90;;;17.30;74.30;;;;;;4992614;28;20045;-96
2023/10/08 04:12:48;;;;;;;7.88;3.35;;;17.30;74.40;;;;;;4995423;28;20093;-96
2023/10/08 04:15:16;;;;;;;14.68;3.33;;;17.30;74.30;;;;;;4994848;28;20026;-94
2023/10/08 04:17:45;;;;;;;13.35;3.35;;;17.30;74.20;;;;;;4995685;28;20485;-96
2023/10/08 04:22:59;;;;;;;11.10;3.10;;;17.30;74.30;;;;;;4993512;28;20077;-96
2023/10/08 04:25:27;;;;;;;13.27;3.10;;;17.30;74.40;;;;;;4971853;28;20076;-96
2023/10/08 04:28:00;;;;;;;12.70;3.38;;;17.30;74.40;;;;;;4994556;28;20060;-96
2023/10/08 04:30:32;;;;;;;8.13;2.75;;;17.30;74.40;;;;;;4993248;28;20085;-96
2023/10/08 04:33:06;;;;;;;11.13;3.30;;;17.30;74.40;;;;;;4975289;28;20044;-96
2023/10/08 04:35:36;;;;;;;10.50;3.25;;;17.30;74.40;;;;;;4997014;28;20038;-96
2023/10/08 04:38:04;;;;;;;11.98;3.78;;;17.30;74.50;;;;;;4970769;28;20066;-96
2023/10/08 04:40:39;;;;;;;12.18;2.95;;;17.30;74.30;;;;;;4994604;28;20042;-96
2023/10/08 04:43:05;;;;;;;9.52;3.40;;;17.30;74.40;;;;;;4976197;28;20022;-96
2023/10/08 04:45:34;;;;;;;11.48;3.50;;;17.30;74.40;;;;;;4972139;28;20030;-96
2023/10/08 04:47:59;;;;;;;9.98;3.40;;;17.30;74.40;;;;;;4977431;28;20049;-95
2023/10/08 04:50:30;;;;;;;8.60;2.53;;;17.30;74.50;;;;;;4992116;28;20101;-95
2023/10/08 04:52:58;;;;;;;8.90;3.00;;;17.30;74.40;;;;;;4993596;28;20034;-96
2023/10/08 04:55:29;;;;;;;8.90;2.90;;;17.30;74.40;;;;;;4969568;28;20033;-95
2023/10/08 04:57:59;;;;;;;9.35;3.80;;;17.30;74.50;;;;;;4993779;28;20037;-96
2023/10/08 05:00:53;;;;;;;9.40;3.38;;;17.30;74.40;;;;;;4973794;28;20069;-96
2023/10/08 05:03:22;;;;;;;11.60;3.13;;;17.30;74.40;;;;;;4993000;28;20039;-96
2023/10/08 05:05:55;;;;;;;8.93;3.35;;;17.30;74.40;;;;;;4993100;28;20040;-96
2023/10/08 05:08:47;;;;;;;8.68;3.28;;;17.30;74.40;;;;;;4971521;28;20031;-96
2023/10/08 05:14:28;;;;;;;12.82;3.83;;;17.30;74.40;;;;;;4944058;28;20075;-96
2023/10/08 05:17:09;;;;;;;14.52;3.33;;;17.30;74.40;;;;;;4946950;29;20043;-96
2023/10/08 05:22:18;;;;;;;7.63;3.40;;;17.30;74.40;;;;;;4946556;29;20120;-96
2023/10/08 05:33:59;;;;;;;7.90;3.38;;;17.30;74.40;;;;;;4948475;29;20046;-96
2023/10/08 05:35:56;;;;;;;;;;;17.30;74.40;;;;;;4948390;29;20035;-95
2023/10/08 05:38:23;;;;;;;11.65;3.40;;;17.30;74.30;;;;;;4925895;29;20364;-96
2023/10/08 06:16:05;;;;;;;12.70;3.60;;;17.30;74.40;;;;;;4995766;28;20545;-95
2023/10/08 06:18:32;;;;;;;9.82;2.97;;;17.30;74.50;;;;;;4968952;28;20887;-95
2023/10/08 06:21:00;;;;;;;5.63;3.20;;;17.30;74.40;;;;;;4975526;28;20030;-96
2023/10/08 06:23:28;;;;;;;8.40;2.70;;;17.30;74.40;;;;;;4976365;28;20113;-96
2023/10/08 06:25:58;;;;;;;12.82;3.25;;;17.30;74.40;;;;;;4991988;28;20111;-96
2023/10/08 06:28:26;;;;;;;7.88;3.00;;;17.30;74.40;;;;;;4978046;28;20029;-96
2023/10/08 06:30:55;;;;;;;7.05;2.53;;;17.30;74.30;;;;;;4976466;28;20080;-96
2023/10/08 06:33:22;;;;;;;10.23;3.30;;;17.30;74.40;;;;;;4971823;28;20018;-93
2023/10/08 06:36:05;;;;;;;11.88;3.03;;;17.30;74.30;;;;;;4976122;28;20109;-96
2023/10/08 06:38:34;;;;;;;9.32;3.42;;;17.30;74.30;;;;;;4974003;28;20146;-96
2023/10/08 06:44:02;;;;;;;11.60;3.45;;;17.30;74.30;;;;;;4993219;28;20080;-96
2023/10/08 06:46:32;;;;;;;13.80;3.20;;;17.30;74.40;;;;;;4972251;28;20525;-96
2023/10/08 06:49:02;;;;;;;13.43;3.60;;;17.30;74.40;;;;;;4969576;28;20114;-95
2023/10/08 06:51:30;;;;;;;13.40;3.25;;;17.30;74.30;;;;;;4992153;28;20170;-96
2023/10/08 06:54:00;;;;;;;21.75;3.13;;;17.30;74.30;;;;;;4994767;28;20037;-96
2023/10/08 06:56:25;;;;;;;20.80;3.85;;;17.30;74.30;;;;;;4975715;28;20033;-96
2023/10/08 06:58:53;;;;;;;16.55;3.33;;;17.30;74.30;;;;;;4976836;28;20030;-96
2023/10/08 07:01:24;;;;;;;12.13;3.50;;;17.30;74.30;;;;;;4991997;28;20031;-96
2023/10/08 07:03:51;;;;;;;15.20;3.20;;;17.30;74.40;;;;;;4990106;28;20038;-96
2023/10/08 07:06:31;;;;;;;8.80;3.28;;;17.30;74.40;;;;;;4992193;28;20068;-96
2023/10/08 07:08:59;;;;;;;11.97;3.73;;;17.30;74.30;;;;;;4973040;28;20034;-96
2023/10/08 07:11:28;;;;;;;7.90;2.88;;;17.30;74.40;;;;;;4977475;28;20073;-95
2023/10/08 07:13:55;;;;;;;16.37;3.33;;;17.30;75.10;;;;;;4974876;28;20026;-95
2023/10/08 07:16:21;;;;;;;11.20;3.45;;;17.30;74.40;;;;;;4968977;28;20113;-96
2023/10/08 07:18:55;;;;;;;8.65;2.83;;;17.30;74.40;;;;;;5011434;28;20066;-96
2023/10/08 07:21:28;;;;;;;14.77;3.08;;;17.30;74.40;;;;;;4982014;28;20038;-96
2023/10/08 07:23:59;;;;;;;8.95;3.00;;;17.30;74.40;;;;;;5010921;28;20363;-95
2023/10/08 07:26:26;;;;;;;10.95;3.70;;;17.30;74.40;;;;;;4995193;28;20026;-96
2023/10/08 07:28:52;;;;;;;10.65;4.00;;;17.30;74.40;;;;;;4971215;28;20095;-96
2023/10/08 07:31:28;;;;;;;10.27;3.88;;;17.30;74.40;;;;;;4979657;28;20030;-96
2023/10/08 07:33:56;;;;;;;8.18;3.78;;;17.30;74.50;;;;;;4974213;28;20118;-96
2023/10/08 07:36:30;;;;;;;8.18;3.08;;;17.30;74.50;;;;;;4993900;28;20379;-96
2023/10/08 07:38:56;;;;;;;11.02;3.55;;;17.30;74.50;;;;;;4994310;28;20034;-95
2023/10/08 07:41:22;;;;;;;9.23;4.00;;;17.30;74.40;;;;;;4974093;28;20068;-96
2023/10/08 07:43:55;;;;;;;10.60;3.42;;;17.30;74.50;;;;;;4997013;28;20113;-96
2023/10/08 07:46:21;;;;;;;12.23;4.18;;;17.30;74.60;;;;;;4978337;28;20031;-96
2023/10/08 07:48:47;;;;;;;10.68;3.17;;;17.30;74.60;;;;;;4977367;28;20041;-95
2023/10/08 07:51:23;;;;;;;9.68;3.58;;;17.30;74.60;;;;;;4983430;28;20019;-96
2023/10/08 07:53:55;;;;;;;10.68;3.65;;;17.30;74.70;;;;;;4993923;28;20371;-94
2023/10/08 07:56:24;;;;;;;8.02;3.28;;;17.30;74.60;;;;;;4975081;28;20026;-95
2023/10/08 07:58:51;;;;;;;10.82;3.38;;;17.30;74.70;;;;;;4974343;28;20034;-96
2023/10/08 08:01:17;;;;;;;9.88;2.97;;;17.30;74.80;;;;;;4980879;28;20057;-96
2023/10/08 08:03:44;;;;;;;13.02;3.80;;;17.30;74.80;;;;;;4968352;28;20058;-96
2023/10/08 08:06:13;;;;;;;10.38;3.40;;;17.30;74.80;;;;;;4994830;28;20030;-96
2023/10/08 08:08:39;;;;;;;7.55;3.53;;;17.30;74.80;;;;;;4977309;28;20047;-96
2023/10/08 08:11:12;;;;;;;11.23;3.60;;;17.30;74.90;;;;;;4995516;28;20057;-95
2023/10/08 08:13:42;;;;;;;12.73;4.05;;;17.30;74.90;;;;;;4993733;28;20357;-96
2023/10/08 08:16:17;;;;;;;;;;;17.30;75.00;;;;;;4973822;28;20031;-96
2023/10/08 08:18:43;;;;;;;5.63;2.67;;;17.90;75.40;;;;;;5000580;28;19957;-96
2023/10/08 08:21:14;;;;;;;14.60;2.88;;;17.30;75.00;;;;;;4998920;28;20117;-96
2023/10/08 08:23:41;;;;;;;14.07;3.42;;;17.30;75.10;;;;;;4973722;28;20523;-96
2023/10/08 08:26:11;;;;;;;12.43;2.88;;;17.30;75.10;;;;;;4980471;28;20027;-96
2023/10/08 08:28:37;;;;;;;11.93;3.25;;;17.30;75.10;;;;;;4996794;28;20089;-96
2023/10/08 08:31:13;;;;;;;9.68;2.90;;;17.30;75.20;;;;;;4996658;28;20382;-96
2023/10/08 08:33:56;;;;;;;7.40;2.95;;;17.30;75.30;;;;;;4994844;28;20034;-96
2023/10/08 08:36:27;;;;;;;7.80;3.20;;;17.30;75.30;;;;;;4974090;28;20034;-96
2023/10/08 08:38:53;;;;;;;11.02;3.15;;;17.30;75.30;;;;;;4994213;28;20023;-95
2023/10/08 08:41:20;;;;;;;11.82;3.30;;;17.30;75.40;;;;;;4994384;28;20833;-96
2023/10/08 08:43:58;;;;;;;9.25;3.35;;;17.30;75.40;;;;;;4993420;28;20030;-96
2023/10/08 08:46:35;;;;;;;12.75;3.20;;;17.30;75.50;;;;;;4972151;28;20034;-92
2023/10/08 08:49:07;;;;;;;8.77;2.75;;;17.30;75.50;;;;;;4970048;28;20129;-96
2023/10/08 08:51:34;;;;;;;10.50;3.60;;;17.40;75.60;;;;;;4977829;28;20036;-96
2023/10/08 08:54:05;;;;;;;15.00;3.85;;;17.30;75.60;;;;;;4977303;28;20066;-96
2023/10/08 08:56:38;;;;;;;19.60;3.60;;;17.30;75.60;;;;;;4978000;28;20138;-95
2023/10/08 08:59:05;;;;;;;14.07;3.05;;;17.30;75.70;;;;;;4990334;28;20030;-96
2023/10/08 09:01:32;;;;;;;8.55;2.72;;;17.30;75.60;;;;;;4977785;28;20057;-96
2023/10/08 09:04:05;;;;;;;9.10;3.30;;;17.30;75.70;;;;;;4969869;28;20118;-96
2023/10/08 09:06:32;;;;;;;10.07;2.50;;;17.40;75.70;;;;;;4990562;28;20042;-96
2023/10/08 09:09:22;;;;;;;9.52;2.97;;;17.30;75.70;;;;;;4968974;28;20112;-96
2023/10/08 09:11:52;;;;;;;7.50;3.00;;;17.40;75.80;;;;;;4969526;28;20120;-95
2023/10/08 09:14:21;;;;;;;;;;;17.40;75.80;;;;;;4977013;28;20030;-94
2023/10/08 09:16:47;;;;;;;11.80;3.58;;;17.40;75.80;;;;;;4993696;28;19906;-96
2023/10/08 09:19:18;;;;;;;9.98;2.95;;;17.40;75.90;;;;;;4971248;28;20386;-83
2023/10/08 09:21:59;;;;;;;7.03;2.63;;;17.30;75.80;;;;;;4991430;28;20037;-83
2023/10/08 09:24:25;;;;;;;11.48;2.80;;;17.40;75.90;;;;;;4989882;28;20034;-87
2023/10/08 09:26:52;;;;;;;26.13;2.53;;;17.40;76.70;;;;;;4991179;28;20018;-87
2023/10/08 09:29:21;;;;;;;11.85;3.10;;;17.40;76.70;;;;;;4991205;28;20030;-83
2023/10/08 09:31:55;;;;;;;16.00;3.45;;;17.40;76.70;;;;;;4991219;28;20049;-87
2023/10/08 09:34:25;;;;;;;6.13;3.15;;;17.40;76.60;;;;;;4991135;28;20485;-86
2023/10/08 09:36:53;;;;;;;9.68;2.58;;;17.40;76.80;;;;;;4989625;28;20022;-84
2023/10/08 09:39:23;;;;;;;8.57;2.58;;;17.40;76.70;;;;;;4990111;28;20041;-86
2023/10/08 09:41:50;;;;;;;20.92;3.15;;;17.40;76.60;;;;;;4991479;28;20045;-86
2023/10/08 09:44:18;;;;;;;9.43;2.30;;;17.40;76.70;;;;;;4991144;28;20026;-87
2023/10/08 09:46:52;;;;;;;13.90;2.92;;;17.40;76.70;;;;;;4991078;28;20097;-83
2023/10/08 09:49:23;;;;;;;14.35;3.42;;;17.40;77.00;;;;;;4989761;28;20062;-86
2023/10/08 09:51:49;;;;;;;13.95;3.88;;;17.50;77.40;;;;;;4993630;28;20154;-86
2023/10/08 09:54:24;;;;;;;14.93;4.40;;;17.50;77.60;;;;;;4992264;28;20368;-85
2023/10/08 09:56:52;;;;;;;19.88;5.28;;;17.50;78.20;;;;;;4992244;28;20121;-85
2023/10/08 09:59:19;;;;;;;13.35;4.45;;;17.50;78.10;;;;;;4994866;28;20506;-85
2023/10/08 10:01:47;;;;;;;16.92;3.83;;;17.60;77.80;;;;;;4991608;28;20154;-86
2023/10/08 10:04:23;;;;;;;15.43;3.83;;;17.50;78.00;;;;;;4998408;28;20030;-85
2023/10/08 10:06:50;;;;;;;8.27;3.03;;;17.50;77.10;;;;;;4992051;28;20084;-86
2023/10/08 10:09:24;;;;;;;14.10;3.50;;;17.50;77.80;;;;;;4990913;28;20041;-85
2023/10/08 10:11:51;;;;;;;15.30;2.70;;;17.50;77.90;;;;;;4992293;28;20117;-86
2023/10/08 10:14:17;;;;;;;9.55;3.10;;;17.50;78.30;;;;;;4992622;28;20033;-86
2023/10/08 10:16:48;;;;;;;14.18;2.72;;;17.50;78.60;;;;;;4992459;28;20379;-86
2023/10/08 10:19:20;;;;;;;9.88;3.28;;;17.50;78.60;;;;;;4991876;28;20030;-87
2023/10/08 10:21:49;;;;;;;8.73;3.00;;;17.50;79.00;;;;;;4992399;28;20031;-84
2023/10/08 10:24:41;;;;;;;16.35;4.05;;;17.50;79.20;;;;;;4991106;28;20030;-85
2023/10/08 10:27:14;;;;;;;17.95;3.38;;;17.50;80.70;;;;;;4992114;28;20036;-86
2023/10/08 10:29:43;;;;;;;15.10;3.65;;;17.50;80.20;;;;;;4991276;28;20042;-87
2023/10/08 10:32:13;;;;;;;21.17;3.25;;;17.50;80.60;;;;;;4990612;28;20037;-86
2023/10/08 10:34:39;;;;;;;15.27;4.13;;;17.50;80.40;;;;;;4990043;28;20026;-85
2023/10/08 10:37:20;;;;;;;14.07;4.15;;;17.50;80.10;;;;;;4989886;28;20045;-86
2023/10/08 10:39:54;;;;;;;5.95;2.92;;;17.50;80.90;;;;;;4989264;28;20499;-86
2023/10/08 10:42:20;;;;;;;13.70;5.20;;;17.50;80.90;;;;;;4988260;28;20035;-86
2023/10/08 10:44:50;;;;;;;14.30;4.07;;;17.50;81.10;;;;;;4989824;28;20023;-85
2023/10/08 10:50:10;;;;;;;15.25;4.68;;;17.50;81.60;;;;;;4989216;28;20035;-84
2023/10/08 10:52:45;;;;;;;20.80;3.30;;;17.50;81.30;;;;;;4993856;28;20031;-84
2023/10/08 10:57:43;;;;;;;13.05;3.95;;;17.50;81.40;;;;;;4993787;28;20030;-86
2023/10/08 11:00:47;;;;;;;15.57;2.90;;;17.50;81.30;;;;;;4993704;28;20992;-88
2023/10/08 11:02:59;;;;;;;13.57;3.50;;;17.50;81.80;;;;;;4989799;28;20065;-84
2023/10/08 11:05:33;;;;;;;10.05;3.20;;;17.50;81.80;;;;;;4993993;28;20479;-85
2023/10/08 11:08:06;;;;;;;15.68;3.38;;;17.50;82.00;;;;;;4993919;28;20036;-86
2023/10/08 11:10:38;;;;;;;9.27;3.80;;;17.50;82.80;;;;;;4992964;28;20390;-86
2023/10/08 11:13:14;;;;;;;19.98;3.85;;;18.00;83.00;;;;;;4987454;28;20439;-85
2023/10/08 11:15:40;;;;;;;17.10;3.72;;;17.60;82.80;;;;;;4990308;28;20813;-87
2023/10/08 11:18:17;;;;;;;10.80;3.13;;;17.60;83.10;;;;;;4992399;28;20026;-86
2023/10/08 11:20:46;;;;;;;8.57;2.90;;;17.60;83.30;;;;;;4992618;28;20030;-85
2023/10/08 11:23:33;;;;;;;16.00;3.77;;;17.60;83.70;;;;;;4993256;28;20434;-87
2023/10/08 11:26:02;;;;;;;12.57;3.30;;;17.60;83.90;;;;;;4992756;28;20270;-86
2023/10/08 11:28:34;;;;;;;16.13;4.13;;;17.60;84.30;;;;;;4993738;28;20062;-87
2023/10/08 11:31:09;;;;;;;15.82;3.13;;;17.60;84.30;;;;;;4991054;28;20277;-86
2023/10/08 11:33:42;;;;;;;10.05;3.58;;;17.60;84.80;;;;;;4993765;28;20039;-87
2023/10/08 11:36:18;;;;;;;15.38;3.05;;;17.60;85.50;;;;;;4993710;28;20364;-86
2023/10/08 11:38:53;;;;;;;9.30;3.20;;;17.60;85.20;;;;;;4992932;28;20019;-85
2023/10/08 11:41:22;;;;;;;19.35;3.63;;;17.70;84.90;;;;;;4994505;28;20046;-87
2023/10/08 11:43:58;;;;;;;15.60;3.05;;;17.70;85.00;;;;;;4994071;28;20034;-83
2023/10/08 11:46:33;;;;;;;9.32;3.20;;;17.70;85.20;;;;;;4992978;28;20431;-84
2023/10/08 11:49:04;;;;;;;18.40;3.83;;;17.70;85.50;;;;;;4993351;28;20487;-85
2023/10/08 11:51:34;;;;;;;12.25;3.40;;;17.70;85.20;;;;;;4986762;28;20051;-82
2023/10/08 11:54:00;;;;;;;;;;;17.70;85.70;;;;;;4981367;28;20563;-76
2023/10/08 11:56:28;;;;;;;10.95;4.05;;;17.70;84.90;;;;;;4980454;28;19914;-83
2023/10/08 11:58:56;;;;;;;12.60;3.78;;;17.70;85.30;;;;;;4980439;28;20030;-86
2023/10/08 12:01:26;;;;;;;9.35;3.22;;;17.70;85.60;;;;;;4979261;28;20065;-84
2023/10/08 12:03:59;;;;;;;14.77;3.78;;;17.70;85.90;;;;;;4981020;28;20101;-84
2023/10/08 12:06:29;;;;;;;11.93;3.45;;;17.70;86.00;;;;;;4980001;28;20031;-77
2023/10/08 12:08:58;;;;;;;16.48;3.45;;;17.70;86.10;;;;;;4979859;28;20057;-84
2023/10/08 12:11:30;;;;;;;13.35;3.13;;;17.70;86.30;;;;;;4979828;28;20073;-79
2023/10/08 12:13:59;;;;;;;16.52;3.35;;;17.70;86.20;;;;;;4978677;28;20038;-77
2023/10/08 12:16:29;;;;;;;19.88;3.42;;;17.80;86.70;;;;;;4979137;28;20034;-78
2023/10/08 12:18:58;;;;;;;11.85;2.85;;;17.90;86.80;;;;;;4979729;28;20095;-86
2023/10/08 12:21:31;;;;;;;9.68;3.25;;;17.80;87.30;;;;;;4979365;28;20050;-83
2023/10/08 12:23:58;;;;;;;13.05;3.78;;;17.80;87.40;;;;;;4979734;28;20030;-88
2023/10/08 12:26:24;;;;;;;17.65;3.58;;;17.80;87.80;;;;;;4980073;28;20109;-84
2023/10/08 12:28:50;;;;;;;13.65;3.00;;;17.80;87.80;;;;;;4979121;28;20161;-77
2023/10/08 12:31:23;;;;;;;11.15;3.78;;;17.80;87.90;;;;;;4978817;28;20026;-88
2023/10/08 12:33:53;;;;;;;9.80;3.20;;;17.80;88.20;;;;;;4978359;28;20050;-81
2023/10/08 12:36:22;;;;;;;10.35;3.17;;;17.80;88.80;;;;;;4979752;28;20437;-86
2023/10/08 12:38:49;;;;;;;17.52;3.17;;;17.80;88.80;;;;;;4978771;28;20073;-81
2023/10/08 12:41:16;;;;;;;10.73;3.13;;;17.80;88.80;;;;;;4978722;28;20034;-76
2023/10/08 12:43:52;;;;;;;13.50;3.72;;;17.90;89.80;;;;;;4979067;28;20124;-87
2023/10/08 12:46:18;;;;;;;8.75;3.13;;;17.90;89.60;;;;;;4978446;28;20637;-79
2023/10/08 12:48:47;;;;;;;7.47;2.97;;;17.90;89.50;;;;;;4979068;28;20125;-83
2023/10/08 12:51:14;;;;;;;10.80;3.25;;;17.90;89.40;;;;;;4978957;28;20088;-86
2023/10/08 12:53:41;;;;;;;6.47;2.97;;;17.90;89.50;;;;;;4979165;28;22770;-87
2023/10/08 12:56:15;;;;;;;15.27;3.83;;;17.90;90.10;;;;;;4979356;28;20030;-85
2023/10/08 12:58:44;;;;;;;17.35;3.53;;;17.90;90.10;;;;;;4978375;28;21048;-89
2023/10/08 13:01:19;;;;;;;17.55;3.28;;;18.00;90.00;;;;;;4978835;28;20503;-87
2023/10/08 13:03:49;;;;;;;18.75;3.17;;;17.90;89.60;;;;;;4977716;28;20023;-87
2023/10/08 13:06:22;;;;;;;14.20;3.47;;;18.00;89.60;;;;;;4977925;28;20061;-88
2023/10/08 13:08:52;;;;;;;13.65;3.75;;;17.90;90.00;;;;;;4977723;28;20403;-80
2023/10/08 13:11:23;;;;;;;12.35;3.10;;;18.00;90.30;;;;;;4978633;28;20030;-87
2023/10/08 13:13:52;;;;;;;9.88;3.40;;;18.00;90.00;;;;;;4980414;28;20113;-85
2023/10/08 13:16:21;;;;;;;15.27;3.10;;;18.00;89.20;;;;;;4980858;28;20505;-87
2023/10/08 13:18:47;;;;;;;8.60;3.38;;;18.00;89.30;;;;;;4978740;28;20050;-75
2023/10/08 13:21:13;;;;;;;13.35;3.47;;;18.00;89.10;;;;;;4978409;28;20038;-82
2023/10/08 13:23:39;;;;;;;14.27;3.75;;;18.00;89.00;;;;;;4979782;28;20120;-88
2023/10/08 13:26:07;;;;;;;6.75;2.80;;;18.00;89.20;;;;;;4979138;28;20129;-88
2023/10/08 13:28:33;;;;;;;27.75;4.43;;;18.00;90.10;;;;;;4979494;28;20053;-79
2023/10/08 13:31:01;;;;;;;15.05;3.67;;;18.00;89.20;;;;;;4977427;28;20092;-82
2023/10/08 13:33:26;;;;;;;12.98;3.72;;;18.00;89.70;;;;;;4977479;28;20101;-90
2023/10/08 13:35:52;;;;;;;12.85;3.22;;;18.00;89.20;;;;;;4957557;28;20034;-87
2023/10/08 13:38:19;;;;;;;9.15;3.78;;;18.00;89.10;;;;;;4974232;28;20526;-88
2023/10/08 13:41:06;;;;;;;16.33;3.92;;;18.00;89.10;;;;;;4956838;28;20043;-88
2023/10/08 13:43:35;;;;;;;13.32;4.05;;;17.90;89.00;;;;;;4975012;28;20047;-90
2023/10/08 13:46:15;;;;;;;18.25;4.00;;;18.00;88.70;;;;;;4957503;28;20058;-85
2023/10/08 13:48:46;;;;;;;21.63;3.58;;;18.00;88.60;;;;;;4961783;28;20034;-86
2023/10/08 13:51:15;;;;;;;10.30;2.75;;;18.00;88.70;;;;;;4975706;28;20046;-86
2023/10/08 13:53:47;;;;;;;8.90;3.53;;;18.00;89.10;;;;;;4958914;28;20077;-91
2023/10/08 13:56:13;;;;;;;14.00;3.53;;;18.00;89.50;;;;;;4959272;28;20762;-91
2023/10/08 13:58:46;;;;;;;18.17;3.53;;;18.00;90.00;;;;;;4958290;28;20057;-93
2023/10/08 14:01:20;;;;;;;14.05;3.88;;;18.00;90.30;;;;;;4957636;28;20722;-92
2023/10/08 14:03:53;;;;;;;14.38;3.35;;;18.00;90.00;;;;;;4958887;28;20031;-92
2023/10/08 14:06:20;;;;;;;16.25;3.45;;;18.10;90.10;;;;;;4957745;28;20034;-93
2023/10/08 14:08:51;;;;;;;14.65;3.95;;;18.10;90.30;;;;;;4958805;28;20119;-92
2023/10/08 14:11:18;;;;;;;13.10;3.97;;;18.10;90.10;;;;;;4957048;28;20034;-92
2023/10/08 14:13:44;;;;;;;16.83;3.45;;;18.10;90.40;;;;;;4956965;28;20034;-91
2023/10/08 14:16:11;;;;;;;18.98;3.90;;;18.10;90.40;;;;;;4958113;28;20445;-93
2023/10/08 14:18:53;;;;;;;12.93;3.83;;;18.10;90.40;;;;;;4974616;28;20088;-92
2023/10/08 14:21:23;;;;;;;21.02;3.92;;;18.10;90.40;;;;;;4957237;28;20049;-91
2023/10/08 14:23:52;;;;;;;12.68;3.75;;;18.10;90.60;;;;;;4959252;28;21446;-92
2023/10/08 14:26:21;;;;;;;12.68;3.42;;;18.10;90.80;;;;;;4960739;28;20035;-91
2023/10/08 14:28:52;;;;;;;18.15;4.07;;;18.10;90.90;;;;;;4977681;28;20026;-88
2023/10/08 14:31:22;;;;;;;13.27;3.92;;;18.10;91.10;;;;;;4969071;28;20045;-91
2023/10/08 14:42:54;;;;;;;10.50;3.63;;;18.00;91.30;;;;;;4976941;28;20030;-91
2023/10/08 14:44:56;;;;;;;27.83;5.47;;;18.10;91.90;;;;;;4980372;28;20045;-88
2023/10/08 14:47:22;;;;;;;45.22;10.93;;;18.10;92.00;;;;;;4964246;28;20026;-92
2023/10/08 14:49:47;;;;;;;43.08;9.95;;;18.10;92.40;;;;;;4969128;28;20057;-90
2023/10/08 14:52:13;;;;;;;18.80;5.20;;;18.10;92.80;;;;;;4963732;28;20026;-92
2023/10/08 14:54:39;;;;;;;18.55;4.53;;;18.10;92.50;;;;;;4963364;28;20050;-90
2023/10/08 14:57:05;;;;;;;10.38;3.90;;;18.20;92.50;;;;;;4962656;28;20100;-91
2023/10/08 14:59:32;;;;;;;11.57;4.20;;;18.20;92.50;;;;;;4962650;28;20042;-89
2023/10/08 15:01:58;;;;;;;12.02;3.90;;;18.20;92.60;;;;;;4962334;28;20058;-88
2023/10/08 15:04:26;;;;;;;13.57;3.78;;;18.20;92.50;;;;;;4961901;28;20022;-87
2023/10/08 15:06:51;;;;;;;15.10;4.60;;;18.20;92.70;;;;;;4961623;28;20111;-88
2023/10/08 15:09:23;;;;;;;20.95;5.05;;;18.20;92.70;;;;;;4956105;28;20026;-86
2023/10/08 15:11:51;;;;;;;8.32;4.45;;;18.20;93.00;;;;;;4959116;28;20061;-87
2023/10/08 15:14:18;;;;;;;19.80;5.65;;;18.20;93.20;;;;;;4960811;28;20022;-88
2023/10/08 15:16:51;;;;;;;19.02;5.68;;;18.20;93.90;;;;;;4977815;28;20037;-88
2023/10/08 15:19:23;;;;;;;16.73;4.53;;;18.20;93.60;;;;;;4960662;28;20046;-87
2023/10/08 15:21:52;;;;;;;12.00;4.68;;;18.20;93.60;;;;;;4959439;28;20038;-88
2023/10/08 15:24:22;;;;;;;17.25;4.55;;;18.20;93.70;;;;;;4965007;28;20042;-88
2023/10/08 15:26:49;;;;;;;14.70;4.40;;;18.20;93.70;;;;;;4961281;28;20046;-88
2023/10/08 15:29:15;;;;;;;15.27;5.30;;;18.10;93.70;;;;;;4976459;28;21474;-87
2023/10/08 15:31:42;;;;;;;20.00;4.88;;;18.10;93.70;;;;;;4959042;28;20035;-85
2023/10/08 15:34:08;;;;;;;18.45;3.78;;;18.10;93.60;;;;;;4960029;28;20041;-85
2023/10/08 15:36:34;;;;;;;21.08;4.78;;;18.10;93.70;;;;;;4957879;28;20038;-86
2023/10/08 15:38:59;;;;;;;16.48;4.28;;;18.10;93.70;;;;;;4958095;28;20030;-85
2023/10/08 15:41:25;;;;;;;10.23;4.28;;;18.10;93.70;;;;;;4960654;28;20053;-86
2023/10/08 15:43:58;;;;;;;13.73;4.35;;;18.00;93.70;;;;;;4976979;28;20498;-87
2023/10/08 15:46:27;;;;;;;20.73;5.32;;;18.00;93.70;;;;;;4974950;28;20045;-89
2023/10/08 15:48:53;;;;;;;15.23;4.05;;;18.00;93.70;;;;;;4957840;28;20030;-87
2023/10/08 15:51:19;;;;;;;11.82;4.20;;;18.00;93.70;;;;;;4976302;28;20517;-86
2023/10/08 15:53:45;;;;;;;21.42;4.00;;;18.00;93.70;;;;;;4959419;28;20068;-87
2023/10/08 15:56:11;;;;;;;11.13;4.47;;;18.00;93.70;;;;;;4961156;28;20065;-86
2023/10/08 15:58:36;;;;;;;21.70;5.05;;;18.00;93.70;;;;;;4973799;28;20069;-85
2023/10/08 16:01:02;;;;;;;13.55;4.43;;;18.00;93.80;;;;;;4955655;28;20036;-88
2023/10/08 16:03:28;;;;;;;13.23;5.50;;;18.10;94.00;;;;;;4960023;28;20030;-86
2023/10/08 16:05:54;;;;;;;20.92;5.40;;;18.00;93.90;;;;;;4974762;28;20659;-86
2023/10/08 16:08:20;;;;;;;20.73;5.57;;;18.00;94.00;;;;;;4975463;28;20038;-87
2023/10/08 16:10:46;;;;;;;18.95;5.20;;;17.90;93.90;;;;;;4958916;28;20031;-87
2023/10/08 16:13:13;;;;;;;12.80;5.45;;;18.00;94.00;;;;;;4958993;28;20038;-87
2023/10/08 16:15:40;;;;;;;11.73;4.93;;;17.90;94.00;;;;;;4958599;28;20030;-87
2023/10/08 16:18:06;;;;;;;12.95;4.93;;;17.90;94.00;;;;;;4959648;28;20057;-87
2023/10/08 16:20:32;;;;;;;17.77;4.70;;;17.90;94.10;;;;;;4958282;28;20030;-86
2023/10/08 16:22:58;;;;;;;17.70;5.15;;;17.90;94.00;;;;;;4974218;28;20046;-87
2023/10/08 16:25:24;;;;;;;21.13;4.45;;;17.90;94.10;;;;;;4963069;28;20038;-87
2023/10/08 16:27:52;;;;;;;20.77;4.57;;;17.90;94.00;;;;;;4961298;28;20117;-87
2023/10/08 16:30:22;;;;;;;18.25;4.07;;;17.90;93.90;;;;;;4963091;28;20070;-87
2023/10/08 16:32:55;;;;;;;12.80;4.10;;;17.90;93.80;;;;;;4960595;28;20038;-88
2023/10/08 16:35:24;;;;;;;14.65;4.00;;;18.20;93.80;;;;;;4977739;28;20030;-88
2023/10/08 16:37:50;;;;;;;12.15;4.13;;;17.80;93.50;;;;;;4959480;28;20040;-87
2023/10/08 16:40:18;;;;;;;16.05;4.55;;;17.90;93.50;;;;;;4959176;28;20026;-88
2023/10/08 16:42:44;;;;;;;41.13;15.30;;;17.90;93.40;;;;;;4958347;28;20106;-87
2023/10/08 16:45:10;;;;;;;28.38;8.98;;;17.80;93.30;;;;;;4974858;28;21076;-89
2023/10/08 16:47:36;;;;;;;17.73;7.82;;;17.80;93.20;;;;;;4959097;28;20632;-88
2023/10/08 16:50:02;;;;;;;19.92;4.95;;;17.80;93.00;;;;;;4959555;28;20046;-88
2023/10/08 16:52:28;;;;;;;17.52;6.45;;;17.60;92.90;;;;;;4958450;28;20034;-87
2023/10/08 16:54:54;;;;;;;15.00;5.30;;;17.80;93.10;;;;;;4958483;28;20033;-87
2023/10/08 16:57:20;;;;;;;21.90;4.85;;;17.80;92.90;;;;;;4959448;28;20383;-87
2023/10/08 16:59:47;;;;;;;17.05;4.53;;;17.80;92.90;;;;;;4975227;28;20019;-86
2023/10/08 17:02:13;;;;;;;16.40;4.90;;;17.80;92.80;;;;;;4957042;28;20457;-86
2023/10/08 17:04:39;;;;;;;12.43;4.10;;;18.50;93.00;;;;;;4957555;28;20403;-88
2023/10/08 17:07:04;;;;;;;15.43;4.80;;;17.70;92.80;;;;;;4974763;28;20023;-88
2023/10/08 17:09:31;;;;;;;10.55;4.45;;;17.70;92.80;;;;;;4975156;28;20128;-88
2023/10/08 17:11:56;;;;;;;21.15;4.60;;;17.80;92.70;;;;;;4957778;28;20034;-85
2023/10/08 17:14:22;;;;;;;20.05;4.47;;;17.80;92.60;;;;;;4973562;28;20029;-86
2023/10/08 17:16:48;;;;;;;15.10;4.32;;;17.70;92.60;;;;;;4958507;28;20407;-87